الصفحة الرئيسية
METAR-TAF:

METAR-TAF

مطار :

مطار دبي الدولي

إمارة دبي, الإمارات العربية المتحدة

دائرة عرض: 25-15-10N, خط طول: 055-21-52E, ارتفاع: 8 متر

مراقبة الطقس الحالي

تاريخ ووقت الإصدار 1ساعة و 0 دقيقة قبل الساعة 04:00UTC
ريح 8 عقدة من الجنوب, الاتجاه يتراوح بين الشرق/الجنوب الشرقي و الجنوب/الجنوب الغربي
درجة الحرارة 33°درجة مئوية
الرطوبة 59%
ضغط 997 hPa
الرؤية 10 كم أو أكثر
الغيوم لا تقل 1500 م ولا وجود لمزنة ركامية السحاب الأسود

METAR: OMDB 180400Z 19008KT 120V210 CAVOK 33/24 Q0997 NOSIG

زمن: 09:00 (05:00 UTC)

توقعات

تاريخ ووقت الإصدار 6ساعات و 8 دقيقة قبل الساعة 22:52UTC
التوقعات صالحة من18 الساعة 00 UTC إلى 19 الساعة 06 UTC
ريح 7 عقدة من الجنوب
الرؤية: 8000 متر
أصبح
من 18 الساعة 06 UTC إلى 18 الساعة 08 UTC
ريح 12 عقدة من الغرب
أصبح
من 18 الساعة 16 UTC إلى 18 الساعة 18 UTC
ريح 5 عقدة من الجنوب
نظرية الاحتمالات 30% :
مؤقت
من 19 الساعة 00 UTC إلى 19 الساعة 04 UTC
الرؤية: 4000 متر
غيوم مفككة على ارتفاع 1200 قدم
العجاج

TAF: OMDB 172252Z 1800/1906 19007KT 8000 NSC BECMG 1806/1808 28012KT BECMG 1816/1818 18005KT PROB30 TEMPO 1900/1904 4000 HZ BKN012

أرصاد الطقس والتوقعات من أكثر من 4000 مطار (تقارير الطقس للمطار METAR والتنبؤ بالطقس بالمطارTAF).

المحطات المتاحة هي النقط الصفراء والحمراء على الخريطة.

حرك المؤشر فوق النقطة لمعرفة اسم المحطة.

ثم انقر لمعرفة أرصاد وتوقعات الطقس.

لتغيير الخارطة: اضغط على الأزرار الخضراء مع رمز الصليب الأسود للتكبير. على الزر الأخضر مع شرطة للتصغير، أو على الأسهم الخضراء للخرائط المجاورة.


METAR-TAF: